Time;durP1;ratioP1;P1;durP2;ratioP2;P2;SDS_P1;SDS_P2;PMS_P1;PMS_P2;Temp;Humidity;BMP_temperature;BMP_pressure;BME280_temperature;BME280_humidity;BME280_pressure;Samples;Min_cycle;Max_cycle;Signal;HPM_P1;HPM_P2
2023/06/20 00:00:15;;;;;;;6.78;5.60;;;;;;;16.23;75.38;99656.33;1753949;81;21763;-64
2023/06/20 00:02:43;;;;;;;7.15;5.33;;;;;;;16.17;75.46;99663.36;1754421;81;21051;-64
2023/06/20 00:05:10;;;;;;;5.87;4.97;;;;;;;16.18;75.73;99661.08;1755261;81;20998;-64
2023/06/20 00:07:36;;;;;;;6.33;5.03;;;;;;;16.23;75.95;99652.38;1753691;81;21071;-64
2023/06/20 00:10:03;;;;;;;6.35;5.75;;;;;;;16.30;75.88;99656.27;1756222;81;22233;-64
2023/06/20 00:12:29;;;;;;;6.25;5.65;;;;;;;16.38;75.99;99652.22;1726164;81;21095;-64
2023/06/20 00:14:56;;;;;;;6.92;6.17;;;;;;;16.45;75.98;99657.42;1749285;81;20971;-64
2023/06/20 00:17:22;;;;;;;9.80;7.58;;;;;;;16.50;76.00;99657.94;1736462;81;21024;-64
2023/06/20 00:19:48;;;;;;;8.10;7.30;;;;;;;16.55;75.96;99657.09;1727731;81;21047;-64
2023/06/20 00:22:15;;;;;;;8.25;6.53;;;;;;;16.58;76.00;99663.49;1711375;81;21598;-64
2023/06/20 00:24:43;;;;;;;7.03;5.97;;;;;;;16.59;76.04;99662.53;1702450;83;21004;-64
2023/06/20 00:27:09;;;;;;;8.38;6.35;;;;;;;16.59;76.04;99655.94;1746933;80;21524;-64
2023/06/20 00:29:35;;;;;;;8.50;6.43;;;;;;;16.59;76.11;99655.10;1724354;81;21572;-64
2023/06/20 00:32:02;;;;;;;7.67;6.37;;;;;;;16.62;76.26;99651.76;1725534;81;21033;-64
2023/06/20 00:34:28;;;;;;;7.20;6.15;;;;;;;16.65;76.24;99654.16;1752104;80;21069;-64
2023/06/20 00:36:54;;;;;;;7.40;6.50;;;;;;;16.69;76.31;99659.59;1727834;81;21536;-64
2023/06/20 00:39:20;;;;;;;8.13;6.22;;;;;;;16.72;76.31;99655.41;1727716;81;21601;-64
2023/06/20 00:41:47;;;;;;;6.65;6.03;;;;;;;16.73;76.33;99654.44;1721403;82;20967;-64
2023/06/20 00:44:13;;;;;;;11.03;6.83;;;;;;;16.77;76.52;99658.55;1751199;80;21034;-64
2023/06/20 00:46:41;;;;;;;7.35;5.58;;;;;;;16.82;76.54;99665.30;1753197;81;21086;-64
2023/06/20 00:49:10;;;;;;;7.87;6.40;;;;;;;16.83;76.55;99661.70;1754238;81;21546;-64
2023/06/20 00:51:38;;;;;;;7.85;6.50;;;;;;;16.82;76.47;99658.70;1754685;81;21521;-64
2023/06/20 00:54:05;;;;;;;8.60;6.62;;;;;;;16.82;76.60;99660.02;1756144;81;21043;-64
2023/06/20 00:56:32;;;;;;;7.73;6.90;;;;;;;16.83;76.54;99662.53;1757884;81;21596;-64
2023/06/20 00:58:58;;;;;;;9.40;7.28;;;;;;;16.82;76.48;99665.30;1754083;80;21007;-64
2023/06/20 01:01:25;;;;;;;7.80;6.60;;;;;;;16.80;76.50;99661.92;1749041;81;20959;-64
2023/06/20 01:03:53;;;;;;;8.35;5.92;;;;;;;16.77;76.61;99658.55;1754673;81;21093;-64
2023/06/20 01:06:32;;;;;;;8.43;6.60;;;;;;;16.75;76.69;99661.77;1727666;81;21061;-64
2023/06/20 01:09:18;;;;;;;9.05;6.72;;;;;;;16.76;76.69;99660.84;1754865;80;21077;-64
2023/06/20 01:12:09;;;;;;;9.85;6.80;;;;;;;16.75;76.64;99665.73;1755580;80;20988;-64
2023/06/20 01:14:48;;;;;;;9.60;7.20;;;;;;;16.74;76.55;99664.02;1752860;81;21582;-64
2023/06/20 01:17:21;;;;;;;6.30;5.70;;;;;;;16.72;76.65;99662.00;1755455;81;21232;-64
2023/06/20 01:19:54;;;;;;;7.03;6.22;;;;;;;16.72;76.69;99655.86;1754911;81;21106;-63
2023/06/20 01:22:39;;;;;;;6.97;6.33;;;;;;;16.72;76.76;99651.45;1757441;81;21047;-64
2023/06/20 01:25:09;;;;;;;7.40;6.55;;;;;;;16.72;76.86;99655.41;1754352;81;21066;-64
2023/06/20 01:27:38;;;;;;;8.75;6.42;;;;;;;16.73;76.96;99654.44;1750754;81;21524;-64
2023/06/20 01:30:14;;;;;;;6.50;5.90;;;;;;;16.77;77.04;99655.91;1756763;81;20971;-64
2023/06/20 01:32:44;;;;;;;7.27;6.43;;;;;;;16.82;77.06;99657.39;1754625;81;21086;-64
2023/06/20 01:35:17;;;;;;;7.75;6.22;;;;;;;16.84;77.11;99652.85;1750316;81;21012;-64
2023/06/20 01:37:46;;;;;;;7.20;6.28;;;;;;;16.87;77.14;99653.45;1751492;80;20987;-64
2023/06/20 01:40:15;;;;;;;6.87;6.17;;;;;;;16.88;77.24;99649.02;1752966;81;21479;-64
2023/06/20 01:42:43;;;;;;;6.92;6.15;;;;;;;16.91;77.25;99649.62;1754443;81;21539;-64
2023/06/20 01:45:12;;;;;;;6.55;5.92;;;;;;;16.94;77.30;99655.14;1756646;81;21608;-64
2023/06/20 01:47:40;;;;;;;7.20;6.50;;;;;;;16.84;77.32;99631.75;1752877;80;20982;-64
2023/06/20 01:50:11;;;;;;;7.53;6.40;;;;;;;16.94;77.30;99651.19;1754273;80;20965;-64
2023/06/20 01:52:38;;;;;;;8.08;7.30;;;;;;;16.91;77.16;99650.10;1746297;82;21038;-64
2023/06/20 01:55:05;;;;;;;;;;;;;;;16.86;77.25;99645.64;1726275;82;20990;-64
2023/06/20 01:57:34;;;;;;;7.67;6.80;;;;;;;16.88;77.52;99644.58;1753967;82;20110;-64
2023/06/20 02:00:06;;;;;;;8.13;7.15;;;;;;;16.90;77.34;99641.84;1753355;80;21030;-64
2023/06/20 02:02:32;;;;;;;7.78;6.17;;;;;;;16.89;77.37;99645.45;1753432;80;21049;-64
2023/06/20 02:05:00;;;;;;;7.35;6.62;;;;;;;16.89;77.47;99640.17;1719726;82;21415;-64
2023/06/20 02:07:28;;;;;;;8.93;6.62;;;;;;;16.90;77.57;99647.95;1718432;82;21197;-64
2023/06/20 02:09:55;;;;;;;8.53;6.95;;;;;;;16.93;77.50;99654.80;1752078;80;21008;-64
2023/06/20 02:12:21;;;;;;;8.80;7.67;;;;;;;16.92;77.48;99651.32;1725641;82;21782;-64
2023/06/20 02:14:51;;;;;;;10.93;8.05;;;;;;;16.92;77.40;99655.77;1740739;81;21010;-64
2023/06/20 02:17:19;;;;;;;10.05;8.00;;;;;;;16.89;77.49;99653.36;1748710;82;20968;-64
2023/06/20 02:19:45;;;;;;;8.78;7.42;;;;;;;16.90;77.58;99660.30;1730939;81;21021;-64
2023/06/20 02:22:14;;;;;;;8.83;7.92;;;;;;;16.89;77.64;99655.99;1720081;82;21605;-64
2023/06/20 02:24:43;;;;;;;7.85;7.12;;;;;;;16.89;77.68;99657.31;1720072;82;21097;-64
2023/06/20 02:27:13;;;;;;;7.87;7.08;;;;;;;16.93;77.87;99656.11;1752591;82;21047;-64
2023/06/20 02:29:42;;;;;;;9.05;7.62;;;;;;;16.95;77.85;99654.20;1722343;82;22108;-64
2023/06/20 02:32:13;;;;;;;7.72;6.50;;;;;;;16.96;77.80;99655.88;1722284;82;20939;-64
2023/06/20 02:34:43;;;;;;;7.87;7.08;;;;;;;16.97;77.79;99664.14;1723854;81;21002;-64
2023/06/20 02:37:11;;;;;;;9.28;7.55;;;;;;;16.97;77.91;99654.91;1718652;82;21087;-64
2023/06/20 02:39:38;;;;;;;7.28;6.55;;;;;;;17.00;77.99;99657.34;1725462;82;21005;-64
2023/06/20 02:42:05;;;;;;;7.90;6.80;;;;;;;17.03;77.97;99653.16;1723894;82;20913;-64
2023/06/20 02:44:31;;;;;;;;;;;;;;;17.04;77.95;99650.87;1755820;80;20972;-64
2023/06/20 02:47:10;;;;;;;8.93;7.22;;;;;;;17.09;78.18;99647.41;1754508;82;20115;-64
2023/06/20 02:49:46;;;;;;;10.90;8.43;;;;;;;17.12;78.06;99653.78;1750562;81;20923;-64
2023/06/20 02:52:34;;;;;;;8.05;6.80;;;;;;;17.16;77.98;99655.70;1752093;82;20984;-64
2023/06/20 02:55:16;;;;;;;7.62;6.78;;;;;;;17.18;78.12;99651.98;1754726;82;21021;-64
2023/06/20 02:57:46;;;;;;;9.45;7.58;;;;;;;17.21;78.03;99658.34;1745777;81;20984;-64
2023/06/20 03:00:14;;;;;;;9.30;7.60;;;;;;;17.20;78.13;99654.04;1754221;80;20959;-64
2023/06/20 03:02:43;;;;;;;9.70;7.20;;;;;;;17.25;78.17;99656.80;1750113;80;21009;-64
2023/06/20 03:05:13;;;;;;;9.03;7.05;;;;;;;17.28;78.33;99653.92;1749155;80;21001;-64
2023/06/20 03:07:42;;;;;;;8.60;7.37;;;;;;;17.34;78.40;99661.39;1751901;80;21559;-64
2023/06/20 03:10:10;;;;;;;8.53;7.47;;;;;;;17.35;78.19;99655.14;1725501;82;21022;-64
2023/06/20 03:12:38;;;;;;;10.08;7.17;;;;;;;17.37;78.27;99655.88;1714629;82;21107;-64
2023/06/20 03:15:06;;;;;;;8.70;7.33;;;;;;;17.40;78.32;99664.39;1753039;82;20957;-64
2023/06/20 03:17:35;;;;;;;10.48;7.30;;;;;;;17.43;78.35;99658.04;1752294;81;21010;-64
2023/06/20 03:20:00;;;;;;;11.43;7.83;;;;;;;17.46;78.30;99657.80;1717104;82;21117;-64
2023/06/20 03:22:26;;;;;;;12.50;7.75;;;;;;;17.44;78.29;99659.22;1723583;82;21750;-64
2023/06/20 03:24:53;;;;;;;15.03;8.63;;;;;;;17.46;78.33;99656.48;1726923;82;21061;-64
2023/06/20 03:27:19;;;;;;;15.88;7.30;;;;;;;17.46;78.37;99660.44;1723943;82;20990;-64
2023/06/20 03:29:45;;;;;;;8.80;7.70;;;;;;;17.46;78.34;99659.13;1722247;82;21003;-64
2023/06/20 03:32:11;;;;;;;8.70;7.20;;;;;;;17.48;78.50;99657.70;1752762;80;21534;-64
2023/06/20 03:34:38;;;;;;;9.43;7.47;;;;;;;17.51;78.56;99658.30;1754320;82;20955;-64
2023/06/20 03:37:04;;;;;;;10.30;7.90;;;;;;;17.52;78.47;99660.45;1754036;81;21110;-64
2023/06/20 03:39:31;;;;;;;12.43;8.08;;;;;;;17.49;78.36;99657.56;1752110;80;21003;-64
2023/06/20 03:41:57;;;;;;;12.90;7.35;;;;;;;17.47;78.42;99656.83;1754296;82;21042;-64
2023/06/20 03:44:23;;;;;;;10.58;7.62;;;;;;;17.47;78.60;99662.11;1748715;82;20964;-64
2023/06/20 03:46:49;;;;;;;9.33;7.45;;;;;;;17.49;78.57;99665.48;1748785;81;21090;-64
2023/06/20 03:49:16;;;;;;;9.83;7.35;;;;;;;17.49;78.50;99666.80;1723030;82;20973;-64
2023/06/20 03:51:42;;;;;;;8.90;8.00;;;;;;;17.52;78.74;99670.52;1722349;82;21008;-64
2023/06/20 03:54:09;;;;;;;12.35;7.12;;;;;;;17.58;79.03;99672.69;1723233;83;21511;-64
2023/06/20 03:56:35;;;;;;;8.60;7.28;;;;;;;17.67;79.15;99678.59;1723979;83;21614;-64
2023/06/20 03:59:01;;;;;;;10.65;6.95;;;;;;;17.79;79.27;99674.67;1725063;82;21012;-64
2023/06/20 04:01:28;;;;;;;9.08;7.00;;;;;;;17.91;79.24;99671.06;1721537;83;21141;-64
2023/06/20 04:03:54;;;;;;;7.95;6.62;;;;;;;18.00;79.34;99674.29;1722171;82;21017;-64
2023/06/20 04:06:30;;;;;;;8.75;6.80;;;;;;;18.10;79.45;99675.25;1721657;83;21035;-64
2023/06/20 04:08:49;;;;;;;7.37;6.67;;;;;;;18.19;79.37;99682.09;1719517;82;21185;-64
2023/06/20 04:11:15;;;;;;;7.55;6.85;;;;;;;18.21;79.29;99682.82;1723823;82;21153;-64
2023/06/20 04:13:41;;;;;;;9.55;6.97;;;;;;;18.28;79.42;99680.03;1724176;82;21073;-64
2023/06/20 04:16:07;;;;;;;11.48;7.03;;;;;;;18.37;79.46;99679.77;1722729;83;21123;-64
2023/06/20 04:18:34;;;;;;;12.15;7.37;;;;;;;18.48;79.65;99683.22;1723674;82;21556;-64
2023/06/20 04:21:02;;;;;;;8.65;7.00;;;;;;;18.64;79.70;99679.35;1724345;82;21574;-64
2023/06/20 04:23:28;;;;;;;20.45;7.17;;;;;;;18.80;79.71;99682.95;1724323;82;20996;-64
2023/06/20 04:25:55;;;;;;;7.75;6.95;;;;;;;18.88;79.46;99680.03;1721552;82;21008;-64
2023/06/20 04:28:21;;;;;;;8.55;7.50;;;;;;;18.83;79.18;99683.53;1725058;82;20961;-64
2023/06/20 04:30:49;;;;;;;8.08;7.25;;;;;;;18.84;79.29;99682.55;1723857;82;21108;-64
2023/06/20 04:33:17;;;;;;;7.10;6.40;;;;;;;18.80;79.33;99682.45;1724403;82;20960;-64
2023/06/20 04:35:43;;;;;;;6.95;6.25;;;;;;;18.84;79.43;99680.39;1722691;83;21047;-64
2023/06/20 04:38:09;;;;;;;8.25;6.70;;;;;;;18.88;79.47;99687.96;1724502;82;21078;-64
2023/06/20 04:40:36;;;;;;;7.85;7.00;;;;;;;18.93;79.63;99684.92;1724837;82;21034;-64
2023/06/20 04:43:03;;;;;;;6.42;5.70;;;;;;;18.98;79.65;99684.89;1723607;82;21050;-64
2023/06/20 04:45:30;;;;;;;50.70;8.53;;;;;;;18.99;79.52;99684.44;1723236;83;21032;-64
2023/06/20 04:47:57;;;;;;;7.45;6.10;;;;;;;19.07;79.83;99686.42;1740665;82;21115;-64
2023/06/20 04:50:23;;;;;;;7.33;5.85;;;;;;;19.17;79.84;99685.53;1754778;82;20995;-64
2023/06/20 04:52:50;;;;;;;6.50;5.80;;;;;;;19.21;79.60;99688.75;1753933;82;20991;-64
2023/06/20 04:55:16;;;;;;;7.40;6.47;;;;;;;19.34;79.89;99674.84;1752477;80;21239;-64
2023/06/20 04:57:43;;;;;;;6.85;6.15;;;;;;;19.52;79.60;99678.22;1750252;81;21546;-65
2023/06/20 05:00:13;;;;;;;7.45;6.72;;;;;;;19.78;79.47;99675.55;1752496;81;21121;-65
2023/06/20 05:02:42;;;;;;;7.90;6.05;;;;;;;19.78;79.47;99675.55;1754635;82;21436;-64
2023/06/20 05:05:10;;;;;;;6.08;5.40;;;;;;;19.92;79.30;99669.05;1741916;80;20983;-64
2023/06/20 05:07:38;;;;;;;6.42;5.83;;;;;;;20.02;79.06;99670.40;1749668;81;21070;-64
2023/06/20 05:10:05;;;;;;;6.20;4.95;;;;;;;20.08;79.11;99672.51;1751907;80;21437;-64
2023/06/20 05:12:32;;;;;;;;;;;;;;;20.08;78.79;99672.51;1749825;81;20943;-63
2023/06/20 05:15:00;;;;;;;6.10;5.50;;;;;;;20.10;78.86;99682.00;1750521;81;20118;-64
2023/06/20 05:17:27;;;;;;;5.78;5.20;;;;;;;20.17;79.11;99674.87;1747412;81;20975;-64
2023/06/20 05:19:54;;;;;;;7.67;5.70;;;;;;;20.26;79.01;99679.34;1740634;82;20956;-64
2023/06/20 05:22:20;;;;;;;6.42;5.78;;;;;;;20.25;78.81;99678.52;1751549;81;21023;-64
2023/06/20 05:24:47;;;;;;;6.15;5.55;;;;;;;20.23;78.66;99681.78;1744495;82;21503;-64
2023/06/20 05:27:14;;;;;;;;;;;;;;;20.44;79.05;99678.19;1757707;82;21502;-66
2023/06/20 05:29:40;;;;;;;10.77;5.87;;;;;;;20.70;78.51;99675.91;1754122;82;20491;-64
2023/06/20 05:32:07;;;;;;;6.40;5.80;;;;;;;20.70;78.17;99674.08;1753184;81;20952;-64
2023/06/20 05:34:34;;;;;;;6.67;6.00;;;;;;;20.87;78.25;99683.66;1756462;81;20976;-64
2023/06/20 05:37:00;;;;;;;7.35;5.90;;;;;;;20.90;77.70;99687.36;1756351;81;21019;-65
2023/06/20 05:39:27;;;;;;;7.13;6.43;;;;;;;20.93;77.73;99684.43;1751505;81;21188;-65
2023/06/20 05:41:56;;;;;;;6.83;6.15;;;;;;;20.99;77.89;99688.67;1750061;82;20931;-64
2023/06/20 05:44:22;;;;;;;6.58;5.90;;;;;;;21.12;77.58;99691.06;1755261;81;20991;-65
2023/06/20 05:46:48;;;;;;;7.37;6.67;;;;;;;21.21;77.76;99688.87;1743270;82;21016;-64
2023/06/20 05:49:15;;;;;;;7.50;6.23;;;;;;;21.36;77.45;99693.75;1749122;82;21034;-65
2023/06/20 05:51:44;;;;;;;7.28;6.58;;;;;;;21.42;77.23;99695.86;1750723;82;21495;-65
2023/06/20 05:54:10;;;;;;;108.00;10.95;;;;;;;21.49;77.46;99700.96;1753574;81;21584;-65
2023/06/20 05:56:36;;;;;;;7.62;5.50;;;;;;;21.65;77.44;99699.88;1752072;82;22126;-65
2023/06/20 05:59:04;;;;;;;6.33;5.77;;;;;;;21.76;77.28;99699.34;1746556;80;21027;-64
2023/06/20 06:01:30;;;;;;;7.03;6.08;;;;;;;21.79;77.20;99705.69;1741149;80;21068;-65
2023/06/20 06:03:56;;;;;;;7.93;6.27;;;;;;;21.94;77.06;99714.05;1747351;80;21021;-65
2023/06/20 06:06:26;;;;;;;6.40;5.80;;;;;;;21.98;76.79;99712.27;1739296;81;21094;-64
2023/06/20 06:08:53;;;;;;;5.95;5.45;;;;;;;22.17;77.00;99713.19;1745747;80;21593;-65
2023/06/20 06:11:19;;;;;;;7.92;5.92;;;;;;;22.26;76.80;99708.33;1741617;80;21478;-66
2023/06/20 06:13:46;;;;;;;6.15;5.65;;;;;;;22.43;76.66;99714.19;1747245;80;21030;-65
2023/06/20 06:16:13;;;;;;;6.17;5.60;;;;;;;22.68;76.40;99710.47;1745327;80;21121;-65
2023/06/20 06:18:41;;;;;;;7.95;5.97;;;;;;;22.87;75.88;99706.83;1751434;81;21078;-66
2023/06/20 06:21:07;;;;;;;6.37;5.57;;;;;;;23.00;75.80;99708.16;1752396;82;21003;-65
2023/06/20 06:23:34;;;;;;;6.35;5.72;;;;;;;23.30;76.05;99710.09;1755658;81;20963;-65
2023/06/20 06:26:00;;;;;;;7.90;6.57;;;;;;;23.62;75.48;99705.47;1750156;82;20956;-66
2023/06/20 06:28:28;;;;;;;6.03;5.33;;;;;;;23.98;74.46;99712.55;1753287;81;21528;-67
2023/06/20 06:30:59;;;;;;;8.55;6.30;;;;;;;24.25;74.37;99712.31;1754244;81;21082;-64
2023/06/20 06:33:25;;;;;;;14.28;5.87;;;;;;;24.54;73.88;99709.29;1752492;82;21030;-65
2023/06/20 06:35:55;;;;;;;7.20;6.28;;;;;;;24.79;72.76;99714.19;1748497;80;21023;-66
2023/06/20 06:38:22;;;;;;;8.05;6.58;;;;;;;24.98;71.60;99705.51;1740476;82;21566;-66
2023/06/20 06:40:49;;;;;;;9.08;6.10;;;;;;;25.20;71.35;99710.22;1747765;81;21016;-65
2023/06/20 06:43:15;;;;;;;10.63;6.60;;;;;;;25.39;70.87;99703.70;1755228;81;21019;-66
2023/06/20 06:45:41;;;;;;;9.85;6.37;;;;;;;25.67;70.74;99710.84;1754210;82;21023;-66
2023/06/20 06:48:08;;;;;;;8.40;6.28;;;;;;;25.98;70.28;99708.80;1755593;82;21086;-67
2023/06/20 06:50:35;;;;;;;6.12;5.55;;;;;;;26.38;69.26;99714.16;1755764;82;20999;-66
2023/06/20 06:53:02;;;;;;;9.95;6.42;;;;;;;26.71;69.21;99709.48;1753683;82;20960;-65
2023/06/20 06:55:28;;;;;;;5.95;5.37;;;;;;;27.19;68.38;99708.83;1755930;82;21451;-65
2023/06/20 06:57:54;;;;;;;6.65;5.95;;;;;;;27.51;67.48;99713.59;1750823;81;21581;-65
2023/06/20 07:00:23;;;;;;;7.75;5.08;;;;;;;27.80;66.42;99716.33;1755032;82;20989;-65
2023/06/20 07:02:49;;;;;;;9.90;5.30;;;;;;;28.17;65.86;99709.19;1746138;82;21065;-65
2023/06/20 07:05:16;;;;;;;6.10;5.42;;;;;;;28.36;65.46;99710.98;1752738;80;20982;-65
2023/06/20 07:07:43;;;;;;;6.20;5.50;;;;;;;27.89;64.19;99712.52;1748651;80;20943;-66
2023/06/20 07:10:10;;;;;;;10.88;6.22;;;;;;;28.94;63.00;99698.42;1751046;82;21536;-66
2023/06/20 07:12:36;;;;;;;8.95;5.67;;;;;;;28.94;63.00;99698.42;1753621;81;20995;-66
2023/06/20 07:15:03;;;;;;;9.03;5.08;;;;;;;29.70;63.47;99718.02;1751471;82;21585;-66
2023/06/20 07:17:29;;;;;;;5.78;5.08;;;;;;;29.85;62.32;99718.73;1754197;80;21014;-66
2023/06/20 07:19:56;;;;;;;6.62;4.95;;;;;;;31.01;62.77;99723.38;1752840;82;20992;-65
2023/06/20 07:22:23;;;;;;;;;;;;;;;32.45;61.37;99719.33;1755645;82;20972;-66
2023/06/20 07:24:50;;;;;;;8.75;4.55;;;;;;;33.53;58.83;99717.12;1722860;82;20176;-66
2023/06/20 07:27:16;;;;;;;5.65;4.25;;;;;;;34.56;58.28;99720.16;1722551;82;21065;-66
2023/06/20 07:29:42;;;;;;;;;;;;;;;35.32;56.15;99724.89;1741851;81;21050;-66
2023/06/20 07:32:08;;;;;;;4.83;4.33;;;;;;;35.94;55.73;99723.61;1743889;82;20190;-67
2023/06/20 07:34:34;;;;;;;5.47;4.47;;;;;;;34.98;54.73;99713.72;1718852;82;21105;-65
2023/06/20 07:37:01;;;;;;;6.22;4.70;;;;;;;35.62;54.48;99730.75;1751358;82;21115;-64
2023/06/20 07:39:29;;;;;;;5.45;4.95;;;;;;;35.29;53.16;99728.08;1733097;82;21034;-65
2023/06/20 07:41:55;;;;;;;5.15;3.85;;;;;;;35.83;52.17;99726.09;1755346;82;21030;-65
2023/06/20 07:44:21;;;;;;;5.25;4.10;;;;;;;36.33;51.11;99721.15;1751106;81;21086;-65
2023/06/20 07:46:48;;;;;;;5.95;4.50;;;;;;;35.75;48.93;99715.58;1753427;82;21560;-65
2023/06/20 07:49:14;;;;;;;6.97;5.08;;;;;;;35.82;48.28;99716.30;1744894;82;21040;-65
2023/06/20 07:51:42;;;;;;;7.75;4.58;;;;;;;35.53;47.00;99722.64;1737358;82;21016;-65
2023/06/20 07:54:14;;;;;;;6.87;4.45;;;;;;;35.79;46.74;99719.46;1740541;82;21083;-65
2023/06/20 07:56:40;;;;;;;4.87;4.47;;;;;;;36.61;46.44;99714.92;1739627;82;21039;-65
2023/06/20 07:59:08;;;;;;;4.95;4.45;;;;;;;36.39;44.19;99722.92;1714152;82;21081;-64
2023/06/20 08:01:35;;;;;;;5.22;4.50;;;;;;;35.42;43.66;99725.11;1740081;82;21071;-65
2023/06/20 08:04:01;;;;;;;5.33;4.83;;;;;;;34.67;43.16;99722.09;1743378;82;21001;-65
2023/06/20 08:06:28;;;;;;;5.08;4.58;;;;;;;34.37;42.60;99717.47;1742588;82;21625;-64
2023/06/20 08:08:54;;;;;;;4.55;4.15;;;;;;;34.53;42.57;99715.48;1739105;82;21012;-68
2023/06/20 08:11:21;;;;;;;4.97;4.08;;;;;;;35.56;42.45;99718.13;1740802;81;21024;-68
2023/06/20 08:13:47;;;;;;;7.60;3.95;;;;;;;35.73;41.08;99720.42;1739931;81;20980;-68
2023/06/20 08:16:14;;;;;;;7.50;4.35;;;;;;;36.60;41.47;99705.94;1740464;82;21061;-69
2023/06/20 08:18:40;;;;;;;5.08;4.55;;;;;;;38.26;41.26;99704.97;1739794;81;22293;-69
2023/06/20 08:21:07;;;;;;;8.75;4.40;;;;;;;39.95;39.44;99712.74;1742640;82;21063;-68
2023/06/20 08:23:33;;;;;;;7.00;4.55;;;;;;;40.42;38.91;99706.93;1740573;82;20993;-68
2023/06/20 08:26:00;;;;;;;10.65;4.60;;;;;;;41.55;39.15;99712.77;1738235;81;21059;-69
2023/06/20 08:28:26;;;;;;;6.92;4.72;;;;;;;42.85;37.20;99714.11;1743101;82;21178;-70
2023/06/20 08:30:53;;;;;;;6.20;4.33;;;;;;;42.93;35.83;99716.80;1743210;82;20965;-68
2023/06/20 08:33:22;;;;;;;8.23;4.75;;;;;;;42.60;34.86;99719.76;1744710;81;21023;-68
2023/06/20 08:35:51;;;;;;;7.92;4.17;;;;;;;40.26;34.38;99716.45;1703745;82;21042;-71
2023/06/20 08:38:23;;;;;;;9.40;4.92;;;;;;;39.31;34.18;99724.63;1676009;84;21029;-69
2023/06/20 08:40:52;;;;;;;9.25;4.53;;;;;;;38.69;33.89;99718.30;1701693;83;21083;-68
2023/06/20 08:43:34;;;;;;;11.68;4.40;;;;;;;38.60;33.64;99719.86;1698054;83;21015;-70
2023/06/20 08:45:59;;;;;;;8.48;4.37;;;;;;;39.18;33.92;99715.47;1690390;83;22117;-72
2023/06/20 08:48:46;;;;;;;7.22;4.22;;;;;;;39.53;32.97;99716.86;1744432;79;21080;-69
2023/06/20 08:51:04;;;;;;;14.98;3.95;;;;;;;38.80;32.23;99719.23;1745659;80;21125;-71
2023/06/20 08:53:47;;;;;;;5.17;4.35;;;;;;;38.99;32.23;99722.41;1752171;80;20959;-70
2023/06/20 08:56:10;;;;;;;5.70;3.98;;;;;;;38.79;31.78;99726.56;1758357;81;21025;-69
2023/06/20 08:58:41;;;;;;;5.42;4.20;;;;;;;39.35;31.95;99716.20;1766388;79;21632;-68
2023/06/20 09:01:25;;;;;;;4.30;3.90;;;;;;;40.03;31.38;99713.60;1771295;81;21062;-69
2023/06/20 09:03:42;;;;;;;6.78;4.47;;;;;;;39.96;31.01;99720.39;1754348;81;21616;-70
2023/06/20 09:06:12;;;;;;;4.97;4.28;;;;;;;41.12;31.60;99708.15;1748908;81;21131;-68
2023/06/20 09:08:43;;;;;;;5.12;3.67;;;;;;;42.16;30.59;99715.06;1769621;80;20996;-69
2023/06/20 09:11:21;;;;;;;6.50;3.72;;;;;;;41.46;30.09;99714.41;1770167;80;21053;-70
2023/06/20 09:13:48;;;;;;;7.05;4.20;;;;;;;41.91;30.18;99708.58;1741418;80;22271;-69
2023/06/20 09:16:17;;;;;;;3.75;3.37;;;;;;;42.28;29.42;99718.28;1769967;81;21034;-70
2023/06/20 09:18:49;;;;;;;8.98;3.45;;;;;;;43.32;29.07;99709.88;1769508;80;20990;-70
2023/06/20 09:21:17;;;;;;;4.05;3.72;;;;;;;42.78;27.97;99712.26;1768365;81;21009;-71
2023/06/20 09:23:43;;;;;;;4.92;3.80;;;;;;;41.34;27.75;99712.48;1763804;80;21956;-72
2023/06/20 09:26:17;;;;;;;8.65;3.83;;;;;;;41.06;27.87;99710.63;1769803;80;21650;-69
2023/06/20 09:28:44;;;;;;;4.80;3.83;;;;;;;40.30;26.85;99710.44;1770704;80;21101;-70
2023/06/20 09:31:10;;;;;;;5.65;4.15;;;;;;;39.77;27.37;99715.41;1769669;79;20998;-68
2023/06/20 09:33:37;;;;;;;7.05;4.40;;;;;;;40.40;27.23;99714.58;1768836;80;21022;-68
2023/06/20 09:36:17;;;;;;;8.38;3.77;;;;;;;41.91;27.14;99708.58;1771382;80;21007;-70
2023/06/20 09:38:44;;;;;;;8.93;4.60;;;;;;;42.96;26.63;99703.05;1769705;80;21010;-70
2023/06/20 09:41:16;;;;;;;4.60;3.67;;;;;;;43.19;26.29;99711.96;1771007;80;21030;-69
2023/06/20 09:43:47;;;;;;;4.37;3.98;;;;;;;43.64;26.00;99708.50;1769513;79;21006;-69
2023/06/20 09:46:14;;;;;;;7.08;4.05;;;;;;;44.59;25.73;99717.77;1768666;80;21395;-66
2023/06/20 09:48:48;;;;;;;6.10;3.90;;;;;;;45.59;25.22;99711.17;1749098;79;20974;-67
2023/06/20 09:51:20;;;;;;;8.00;4.03;;;;;;;42.74;23.83;99712.55;1789883;79;20950;-70
2023/06/20 09:53:48;;;;;;;10.28;4.22;;;;;;;40.53;24.46;99713.22;1790684;78;21033;-70
2023/06/20 09:56:17;;;;;;;10.13;4.55;;;;;;;39.20;24.99;99705.13;1789641;78;22340;-67
2023/06/20 09:58:47;;;;;;;8.50;4.58;;;;;;;37.93;25.46;99710.83;1790263;78;21061;-68
2023/06/20 10:01:20;;;;;;;8.28;4.37;;;;;;;37.01;25.60;99706.70;1788951;78;21528;-68
2023/06/20 10:03:52;;;;;;;9.33;4.55;;;;;;;36.94;26.51;99711.44;1788583;79;21273;-66
2023/06/20 10:06:18;;;;;;;6.60;4.28;;;;;;;37.16;26.21;99702.86;1791031;79;20982;-66
2023/06/20 10:08:45;;;;;;;7.28;5.12;;;;;;;36.61;26.82;99712.20;1791969;78;21398;-65
2023/06/20 10:11:12;;;;;;;7.17;5.30;;;;;;;36.60;27.13;99714.10;1790132;79;21089;-69
2023/06/20 10:13:39;;;;;;;7.33;5.75;;;;;;;37.94;28.09;99695.30;1791623;79;20999;-71
2023/06/20 10:16:05;;;;;;;8.53;5.87;;;;;;;37.94;28.09;99695.30;1791210;79;20977;-67
2023/06/20 10:18:35;;;;;;;7.03;5.20;;;;;;;39.02;27.64;99719.19;1787823;77;21044;-66
2023/06/20 10:21:07;;;;;;;7.50;5.28;;;;;;;40.09;27.19;99717.17;1752357;81;20944;-71
2023/06/20 10:23:38;;;;;;;5.45;4.78;;;;;;;40.57;27.30;99708.31;1752664;79;21070;-69
2023/06/20 10:26:07;;;;;;;6.40;4.80;;;;;;;41.52;27.04;99709.21;1718093;82;21087;-70
2023/06/20 10:28:38;;;;;;;10.10;5.60;;;;;;;39.78;26.18;99706.10;1722127;81;21603;-71
2023/06/20 10:31:05;;;;;;;9.03;5.40;;;;;;;39.46;26.51;99716.25;1719444;82;21576;-69
2023/06/20 10:33:37;;;;;;;14.07;5.70;;;;;;;39.29;26.43;99715.83;1754916;80;21528;-71
2023/06/20 10:36:15;;;;;;;7.95;5.72;;;;;;;39.80;26.98;99710.77;1720418;82;21977;-74
2023/06/20 10:38:55;;;;;;;16.02;7.12;;;;;;;39.44;26.26;99715.69;1746991;82;20993;-73
2023/06/20 10:41:24;;;;;;;5.65;4.83;;;;;;;39.47;26.29;99706.99;1708832;81;21608;-66
2023/06/20 10:44:01;;;;;;;5.83;5.08;;;;;;;38.90;26.40;99703.77;1754462;80;21521;-72
2023/06/20 10:49:17;;;;;;;6.15;4.90;;;;;;;36.80;27.81;99702.77;1782327;80;21096;-63
2023/06/20 10:51:46;;;;;;;8.20;5.17;;;;;;;36.80;27.81;99702.77;1779380;80;21077;-63
2023/06/20 10:54:14;;;;;;;8.00;5.47;;;;;;;36.50;28.67;99705.73;1782481;80;21077;-63
2023/06/20 10:56:46;;;;;;;6.58;5.33;;;;;;;36.50;28.67;99705.73;1745468;80;20935;-63
2023/06/20 10:59:16;;;;;;;8.38;5.97;;;;;;;36.42;27.87;99681.66;1752470;80;21535;-64
2023/06/20 11:01:42;;;;;;;22.15;5.78;;;;;;;36.42;27.87;99681.66;1752810;80;21024;-62
2023/06/20 11:04:12;;;;;;;9.63;5.22;;;;;;;35.45;28.08;99687.70;1752423;80;21043;-63
2023/06/20 11:06:39;;;;;;;6.55;5.10;;;;;;;34.66;28.69;99697.40;1743691;80;21537;-63
2023/06/20 11:09:20;;;;;;;5.62;5.10;;;;;;;35.02;29.69;99703.21;1777408;80;20977;-63
2023/06/20 11:11:47;;;;;;;6.12;4.90;;;;;;;35.16;29.27;99701.97;1769480;79;20997;-63
2023/06/20 11:14:17;;;;;;;5.60;5.05;;;;;;;35.33;29.57;99696.67;1753747;80;21057;-62
2023/06/20 11:16:47;;;;;;;7.25;5.22;;;;;;;35.02;28.92;99698.32;1736584;82;21080;-63
2023/06/20 11:19:15;;;;;;;8.55;5.62;;;;;;;33.85;29.28;99696.16;1774811;79;21068;-63
2023/06/20 11:21:41;;;;;;;6.20;5.42;;;;;;;32.99;29.64;99699.59;1751244;81;21009;-63
2023/06/20 11:24:09;;;;;;;10.03;4.92;;;;;;;31.50;29.83;99699.23;1753185;80;21030;-62
2023/06/20 11:26:35;;;;;;;5.12;4.58;;;;;;;30.67;30.60;99704.91;1743420;81;21048;-62
2023/06/20 11:29:03;;;;;;;5.80;5.30;;;;;;;30.14;30.87;99706.03;1782740;80;21049;-62
2023/06/20 11:31:30;;;;;;;5.75;4.58;;;;;;;29.99;31.58;99698.92;1749074;80;20994;-62
2023/06/20 11:34:05;;;;;;;5.65;5.15;;;;;;;30.11;31.93;99702.73;1749364;81;20948;-62
2023/06/20 11:36:36;;;;;;;4.95;4.45;;;;;;;30.09;32.38;99691.33;1780965;80;21001;-62
2023/06/20 11:39:08;;;;;;;5.30;4.72;;;;;;;31.12;33.22;99703.89;1749061;80;21041;-62
2023/06/20 11:41:36;;;;;;;7.22;5.58;;;;;;;31.96;32.30;99680.77;1739767;80;21149;-62